Main page
METAR-TAF:

METAR-TAF

Airports :

Chiang Rai International Airport

Chiang Rai, Thailand

latitude: 19-57-08N, longitude: 099-52-59E, elevation: 390 m

Current weather observation

The report was made 17 minutes ago, at 21:00 UTC
Calm wind
Temperature 22°C
Humidity 100%
Pressure 1012 hPa
Visibility 10 km or more
Scattered clouds at a height of 4000 ft

METAR: VTCT 012100Z 00000KT 9999 SCT040 22/22 Q1012 NOSIG

Time: 04:17 (21:17 UTC)

Forecast

The report was made 4 hours and 17 minutes ago, at 17:00 UTC
Forecast valid from 01 at 18 UTC to 02 at 24 UTC
Wind 5 kt from the Southwest
Visibility 10 km or more
Scattered clouds at a height of 4000 ft
Becoming
from 01 at 21 UTC to 01 at 23 UTC
Wind 5 kt from the North
Temporary
from 02 at 08 UTC to 02 at 14 UTC
Few clouds at a height of 2500 ft, Cumulonimbus.
Broken clouds at a height of 3500 ft
thunderstorm, light rain

TAF: VTCT 011700Z 0118/0224 23005KT 9999 SCT040 BECMG 0121/0123 36005KT TEMPO 0208/0214 -TSRA FEW025CB BKN035

Weather observations and forecasts of more than 4000 airports (METAR and TAF reports).

The available stations are represented by yellow and red dots on the map.

Hover mouse over dot to see the name of the station.

Then click to see weather observations and forecasts.

To change the map : click on the green buttons with a black cross to zoom in, on the green button with a dash to zoom out, or on the green arrows for adjacent maps.


METAR-TAF: